首页
METAR-TAF:

METAR-TAF

机场 :

巴西利亚-儒塞利诺·库比契克总统国际机场

巴西利亚, 巴西利亚联邦行政区, 巴西

纬度: 15-52S, 经度: 047-56W, 海拔: 1061米

当前天气观测

该预报发布于16分钟前的13:00 UTC
风速11节,风向东转东北
温度 21°C
湿度 49%
气压 1025 hPa
能见度10公里或以上
1500米以下无云,无积雨云

METAR: SBBR 161300Z 07011KT CAVOK 21/10 Q1025

时间: 10:16 (13:16 UTC)

预报

该预报发布于4小时和16分钟前的09:00 UTC
预报有效从16日的 12点(UTC)到 17日的 12点(UTC)
风速3节,风向
能见度10公里或以上
1500米以下无云,无积雨云
成为
从 16日的 12点(UTC)到 16日的 14点(UTC)
风速10节,风向东转东南
能见度10公里或以上
少量云层高于4000英尺
成为
从 16日的 22点(UTC)到 16日的 24点(UTC)
风速3节,风向
能见度10公里或以上
1500米以下无云,无积雨云

TAF: SBBR 160900Z 1612/1712 01003KT CAVOK TX28/1618Z TN12/1709Z BECMG 1612/1614 11010KT 9999 FEW040 BECMG 1622/1624 01003KT CAVOK RMK PAZ

超过4000个机场的气象观测和天气预报(METAR&TAF报告)。

可查询的气象台以黄色和红色小点在地图上表示。

将鼠标移到小点上方,可查看气象台名称。

然后点击查看天气观测和预报。

如需切换地图:点击带黑十字的绿色按钮放大地图;点击带横线的绿色按钮缩小地图;或者点击绿色箭头查看邻近地区的地图。


METAR-TAF: